Time;durP1;ratioP1;P1;durP2;ratioP2;P2;SDS_P1;SDS_P2;PMS_P1;PMS_P2;Temp;Humidity;BMP_temperature;BMP_pressure;BME280_temperature;BME280_humidity;BME280_pressure;Samples;Min_cycle;Max_cycle;Signal;HPM_P1;HPM_P2
2022/09/13 00:01:37;;;;;;;4.68;2.78;;;15.40;99.90;;;;;;6250588;28;20507;-79
2022/09/13 00:04:39;;;;;;;4.32;2.83;;;15.30;99.90;;;;;;6250547;28;20045;-79
2022/09/13 00:07:40;;;;;;;6.43;3.30;;;15.20;99.90;;;;;;6250629;28;20049;-80
2022/09/13 00:10:44;;;;;;;5.07;2.60;;;15.20;99.90;;;;;;6249616;28;20060;-78
2022/09/13 00:13:46;;;;;;;4.63;2.70;;;15.10;99.90;;;;;;6248637;28;20045;-79
2022/09/13 00:16:48;;;;;;;5.45;2.63;;;15.10;99.90;;;;;;6247474;28;20050;-79
2022/09/13 00:19:50;;;;;;;4.30;2.92;;;15.00;99.90;;;;;;6251051;28;20054;-79
2022/09/13 00:22:51;;;;;;;3.78;2.63;;;15.00;99.90;;;;;;6249794;28;20050;-79
2022/09/13 00:26:03;;;;;;;4.45;2.70;;;15.00;99.90;;;;;;6249795;28;20052;-79
2022/09/13 00:29:05;;;;;;;3.85;2.22;;;15.00;99.90;;;;;;6227946;28;20042;-79
2022/09/13 00:32:07;;;;;;;6.10;2.45;;;15.00;99.90;;;;;;6226045;28;20050;-79
2022/09/13 00:35:09;;;;;;;5.45;2.78;;;15.00;99.90;;;;;;6224991;28;20057;-79
2022/09/13 00:38:11;;;;;;;7.63;3.00;;;14.90;99.90;;;;;;6225748;28;20049;-78
2022/09/13 00:41:16;;;;;;;9.20;2.80;;;14.90;99.90;;;;;;6225782;28;20057;-79
2022/09/13 00:44:57;;;;;;;5.57;2.42;;;14.90;99.90;;;;;;6225784;28;20064;-78
2022/09/13 00:48:04;;;;;;;3.95;2.72;;;14.90;99.90;;;;;;6224870;28;20049;-79
2022/09/13 00:51:08;;;;;;;4.65;3.20;;;14.90;99.90;;;;;;6225137;28;20176;-79
2022/09/13 00:54:10;;;;;;;7.80;2.38;;;14.90;99.90;;;;;;6224656;28;20470;-79
2022/09/13 00:57:15;;;;;;;5.45;2.50;;;14.80;99.90;;;;;;6224691;28;20042;-79
2022/09/13 01:00:19;;;;;;;7.07;3.15;;;14.80;99.90;;;;;;6225043;28;20538;-79
2022/09/13 01:03:24;;;;;;;12.93;2.97;;;14.70;99.90;;;;;;6225477;28;20050;-79
2022/09/13 01:06:29;;;;;;;7.28;2.97;;;14.70;99.90;;;;;;6224757;28;20057;-79
2022/09/13 01:09:35;;;;;;;3.65;2.30;;;14.70;99.90;;;;;;6224284;28;20514;-79
2022/09/13 01:12:45;;;;;;;13.70;3.70;;;14.60;99.90;;;;;;6224299;28;20407;-79
2022/09/13 01:15:47;;;;;;;7.20;3.28;;;14.60;99.90;;;;;;6225061;28;20045;-79
2022/09/13 01:18:49;;;;;;;4.43;2.50;;;14.60;99.90;;;;;;6224375;28;20042;-78
2022/09/13 01:22:26;;;;;;;7.45;2.80;;;14.60;99.90;;;;;;6224948;28;20041;-79
2022/09/13 01:26:03;;;;;;;12.88;4.60;;;14.50;99.90;;;;;;6224444;28;20045;-80
2022/09/13 01:29:34;;;;;;;4.95;2.17;;;14.50;99.90;;;;;;6241096;28;20050;-79
2022/09/13 01:32:58;;;;;;;7.50;2.78;;;14.50;99.90;;;;;;6248834;28;20065;-79
2022/09/13 01:36:31;;;;;;;9.10;2.95;;;14.40;99.90;;;;;;6249713;28;20089;-79
2022/09/13 01:39:54;;;;;;;5.05;2.58;;;14.40;99.90;;;;;;6249082;28;20103;-79
2022/09/13 01:43:09;;;;;;;11.15;2.40;;;14.40;99.90;;;;;;6248589;28;20519;-79
2022/09/13 01:46:17;;;;;;;6.80;2.38;;;14.40;99.90;;;;;;6248849;28;20045;-80
2022/09/13 01:49:27;;;;;;;3.95;2.75;;;14.40;99.90;;;;;;6249197;28;20068;-79
2022/09/13 01:52:37;;;;;;;7.50;3.00;;;14.30;99.90;;;;;;6248245;28;20057;-79
2022/09/13 01:55:42;;;;;;;5.78;2.65;;;14.30;99.90;;;;;;6247881;28;20057;-78
2022/09/13 01:58:48;;;;;;;3.83;2.88;;;14.20;99.90;;;;;;6247964;28;20045;-79
2022/09/13 02:01:56;;;;;;;4.13;2.75;;;14.10;99.90;;;;;;6247952;28;20053;-78
2022/09/13 02:05:02;;;;;;;;;;;14.10;99.90;;;;;;6248198;28;20042;-78
2022/09/13 02:08:08;;;;;;;11.20;2.72;;;14.00;99.90;;;;;;6247748;28;19933;-79
2022/09/13 02:11:12;;;;;;;12.13;2.90;;;14.00;99.90;;;;;;6247271;28;20412;-79
2022/09/13 02:14:17;;;;;;;4.07;2.63;;;13.90;99.90;;;;;;6248947;28;20041;-79
2022/09/13 02:17:22;;;;;;;9.02;3.10;;;13.90;99.90;;;;;;6248636;28;20061;-79
2022/09/13 02:20:29;;;;;;;3.58;2.60;;;13.90;99.90;;;;;;6253315;28;20060;-79
2022/09/13 02:23:37;;;;;;;4.43;2.90;;;13.90;99.90;;;;;;6252494;28;20049;-78
2022/09/13 02:26:41;;;;;;;4.57;2.77;;;13.90;99.90;;;;;;6253006;28;20046;-79
2022/09/13 02:29:46;;;;;;;9.40;3.10;;;14.00;99.90;;;;;;6241494;28;20415;-79
2022/09/13 02:32:55;;;;;;;4.57;2.60;;;13.90;99.90;;;;;;6251974;28;20049;-79
2022/09/13 02:36:02;;;;;;;7.68;3.13;;;13.90;99.90;;;;;;6252379;28;20053;-79
2022/09/13 02:39:09;;;;;;;6.37;3.10;;;13.80;99.90;;;;;;6251634;28;20418;-79
2022/09/13 02:42:16;;;;;;;6.55;2.80;;;13.80;99.90;;;;;;6251616;28;20057;-78
2022/09/13 02:45:21;;;;;;;8.65;2.72;;;13.70;99.90;;;;;;6251538;28;20053;-78
2022/09/13 02:48:33;;;;;;;4.75;2.72;;;13.70;99.90;;;;;;6251330;28;20052;-79
2022/09/13 02:51:44;;;;;;;3.80;2.47;;;13.70;99.90;;;;;;6252219;28;20427;-78
2022/09/13 02:54:53;;;;;;;4.20;3.00;;;13.70;99.90;;;;;;6252269;28;20052;-79
2022/09/13 02:58:02;;;;;;;3.78;2.72;;;13.70;99.90;;;;;;6252127;28;20045;-78
2022/09/13 03:01:04;;;;;;;6.60;2.90;;;13.70;99.90;;;;;;6252159;28;20049;-79
2022/09/13 03:04:06;;;;;;;3.97;2.10;;;13.70;99.90;;;;;;6252227;28;20059;-79
2022/09/13 03:07:12;;;;;;;9.48;3.28;;;13.70;99.90;;;;;;6251602;28;20045;-80
2022/09/13 03:10:15;;;;;;;3.35;2.40;;;13.70;99.90;;;;;;6251853;28;20049;-79
2022/09/13 03:13:34;;;;;;;4.88;3.45;;;13.60;99.90;;;;;;6251761;28;20423;-78
2022/09/13 03:16:47;;;;;;;8.55;3.10;;;13.70;99.90;;;;;;6252080;28;20054;-80
2022/09/13 03:20:11;;;;;;;7.13;2.80;;;13.60;99.90;;;;;;6251993;28;20053;-79
2022/09/13 03:23:28;;;;;;;3.42;2.45;;;13.70;99.90;;;;;;6251862;28;20053;-79
2022/09/13 03:26:40;;;;;;;10.40;3.25;;;13.60;99.90;;;;;;6251637;28;20049;-78
2022/09/13 03:29:50;;;;;;;9.48;2.60;;;13.70;99.90;;;;;;6249794;28;20050;-78
2022/09/13 03:32:58;;;;;;;6.47;2.65;;;13.60;99.90;;;;;;6248544;28;20414;-78
2022/09/13 03:36:10;;;;;;;8.07;2.95;;;13.60;99.90;;;;;;6251740;28;20049;-78
2022/09/13 03:39:22;;;;;;;5.18;3.13;;;13.50;99.90;;;;;;6251919;28;20049;-79
2022/09/13 03:42:31;;;;;;;5.03;3.08;;;13.60;99.90;;;;;;6253610;28;20056;-79
2022/09/13 03:45:38;;;;;;;5.93;2.47;;;13.70;99.90;;;;;;6253011;28;20103;-79
2022/09/13 03:48:42;;;;;;;4.60;3.00;;;13.70;99.90;;;;;;6253142;28;20067;-79
2022/09/13 03:51:46;;;;;;;5.15;2.42;;;13.70;99.90;;;;;;6253357;28;20049;-79
2022/09/13 03:54:50;;;;;;;4.75;2.35;;;13.80;99.90;;;;;;6252301;28;20049;-79
2022/09/13 03:57:51;;;;;;;4.15;2.42;;;13.80;99.90;;;;;;6252155;28;20049;-79
2022/09/13 04:00:53;;;;;;;4.78;2.88;;;13.80;99.90;;;;;;6252485;28;20410;-77
2022/09/13 04:03:55;;;;;;;6.03;2.85;;;13.90;99.90;;;;;;6251474;28;20054;-78
2022/09/13 04:06:57;;;;;;;4.47;2.80;;;13.90;99.90;;;;;;6250047;28;20041;-77
2022/09/13 04:10:00;;;;;;;8.70;2.92;;;13.90;99.90;;;;;;6249710;28;20045;-77
2022/09/13 04:13:02;;;;;;;6.47;2.95;;;14.00;99.90;;;;;;6249899;28;20415;-78
2022/09/13 04:16:06;;;;;;;7.63;2.75;;;14.00;99.90;;;;;;6250197;28;20408;-78
2022/09/13 04:19:07;;;;;;;5.43;2.28;;;14.00;99.90;;;;;;6249666;28;20418;-77
2022/09/13 04:22:09;;;;;;;3.75;2.67;;;14.00;99.90;;;;;;6250189;28;20060;-77
2022/09/13 04:25:12;;;;;;;4.80;2.83;;;14.00;99.90;;;;;;6250527;28;20542;-78
2022/09/13 04:28:14;;;;;;;8.93;2.47;;;14.00;99.90;;;;;;6250354;28;20045;-78
2022/09/13 04:31:16;;;;;;;7.38;2.42;;;14.00;99.90;;;;;;6246513;28;20056;-78
2022/09/13 04:34:18;;;;;;;18.38;4.65;;;14.10;99.90;;;;;;6243071;28;20549;-76
2022/09/13 04:41:18;;;;;;;8.32;2.70;;;14.10;99.90;;;;;;6256786;28;20037;-78
2022/09/13 04:44:21;;;;;;;8.38;2.72;;;14.10;99.90;;;;;;6276155;28;20056;-79
2022/09/13 04:47:23;;;;;;;6.63;2.80;;;14.20;99.90;;;;;;6275380;28;20058;-78
2022/09/13 04:50:25;;;;;;;4.50;3.10;;;14.20;99.90;;;;;;6275975;28;20044;-78
2022/09/13 04:53:26;;;;;;;4.00;2.13;;;14.20;99.90;;;;;;6276440;28;20461;-79
2022/09/13 04:56:29;;;;;;;4.43;2.92;;;14.20;99.90;;;;;;6275094;28;20510;-77
2022/09/13 04:59:31;;;;;;;7.38;2.60;;;14.20;99.90;;;;;;6275595;28;20048;-78
2022/09/13 05:02:33;;;;;;;6.18;2.92;;;14.30;99.90;;;;;;6275185;28;20052;-78
2022/09/13 05:05:35;;;;;;;6.55;3.03;;;14.30;99.90;;;;;;6275706;28;20056;-78
2022/09/13 05:08:37;;;;;;;6.50;2.80;;;14.40;99.90;;;;;;6275293;28;20060;-78
2022/09/13 05:11:40;;;;;;;6.30;2.75;;;14.40;99.90;;;;;;6275543;28;20052;-78
2022/09/13 05:14:42;;;;;;;4.47;2.47;;;14.30;99.90;;;;;;6275528;28;20053;-78
2022/09/13 05:17:44;;;;;;;4.97;2.75;;;14.30;99.90;;;;;;6275080;28;20041;-78
2022/09/13 05:20:45;;;;;;;5.95;2.80;;;14.40;99.90;;;;;;6275052;28;20410;-78
2022/09/13 05:23:49;;;;;;;4.22;2.88;;;14.40;99.90;;;;;;6275577;28;20521;-78
2022/09/13 05:26:52;;;;;;;4.70;2.70;;;14.50;99.90;;;;;;6275961;28;20099;-77
2022/09/13 05:29:54;;;;;;;14.57;3.95;;;14.50;99.90;;;;;;6274468;28;20417;-77
2022/09/13 05:32:56;;;;;;;6.22;2.75;;;14.60;99.90;;;;;;6250737;28;20049;-79
2022/09/13 05:35:58;;;;;;;18.48;6.32;;;14.70;99.90;;;;;;6251376;28;20088;-78
2022/09/13 05:39:00;;;;;;;10.40;3.03;;;14.80;99.90;;;;;;6250442;28;20038;-79
2022/09/13 05:42:03;;;;;;;6.20;3.28;;;14.90;99.90;;;;;;6250312;28;20546;-79
2022/09/13 05:45:06;;;;;;;6.43;2.78;;;15.00;99.90;;;;;;6251384;28;20525;-78
2022/09/13 05:48:08;;;;;;;7.22;3.30;;;15.00;99.90;;;;;;6252225;28;20553;-79
2022/09/13 05:51:12;;;;;;;11.18;2.65;;;15.20;99.90;;;;;;6249273;28;20056;-78
2022/09/13 05:54:14;;;;;;;5.60;2.88;;;15.30;99.90;;;;;;6248259;28;20056;-79
2022/09/13 05:57:17;;;;;;;6.07;2.80;;;15.40;99.90;;;;;;6249546;28;20045;-79
2022/09/13 06:00:18;;;;;;;5.47;2.17;;;15.50;99.90;;;;;;6248864;28;20045;-78
2022/09/13 06:03:20;;;;;;;7.00;2.70;;;15.60;99.90;;;;;;6249825;28;20057;-79
2022/09/13 06:06:23;;;;;;;8.13;2.30;;;15.70;99.90;;;;;;6249172;28;20057;-79
2022/09/13 06:09:25;;;;;;;14.30;3.15;;;15.80;99.90;;;;;;6248690;28;20049;-79
2022/09/13 06:12:28;;;;;;;8.63;2.80;;;16.00;99.90;;;;;;6249063;28;20061;-79
2022/09/13 06:15:29;;;;;;;7.45;2.28;;;16.20;99.90;;;;;;6250873;28;20056;-78
2022/09/13 06:18:32;;;;;;;4.90;2.58;;;16.50;99.90;;;;;;6249312;28;20048;-79
2022/09/13 06:21:34;;;;;;;4.13;2.47;;;16.70;99.90;;;;;;6249134;28;20131;-78
2022/09/13 06:24:37;;;;;;;3.80;2.03;;;17.10;99.90;;;;;;6248669;28;20053;-78
2022/09/13 06:27:40;;;;;;;10.90;2.30;;;17.40;99.90;;;;;;6248680;28;20099;-78
2022/09/13 06:30:42;;;;;;;2.65;1.95;;;17.60;99.90;;;;;;6247955;28;20142;-78
2022/09/13 06:33:44;;;;;;;3.47;2.20;;;17.90;99.90;;;;;;6247083;28;20056;-79
2022/09/13 06:36:46;;;;;;;3.35;1.90;;;18.30;99.90;;;;;;6248752;28;20041;-78
2022/09/13 06:39:48;;;;;;;6.88;2.28;;;18.70;99.90;;;;;;6249620;28;20052;-79
2022/09/13 06:42:51;;;;;;;6.82;2.03;;;19.10;99.90;;;;;;6248679;28;20041;-79
2022/09/13 06:45:53;;;;;;;4.10;2.30;;;19.50;99.30;;;;;;6249290;28;20559;-78
2022/09/13 06:48:56;;;;;;;5.22;2.03;;;19.90;98.90;;;;;;6249328;28;20051;-79
2022/09/13 06:51:58;;;;;;;3.03;1.52;;;20.30;97.90;;;;;;6249635;28;20139;-80
2022/09/13 06:54:59;;;;;;;5.57;1.80;;;20.60;97.30;;;;;;6250040;28;20061;-80
2022/09/13 06:58:02;;;;;;;2.85;1.70;;;20.80;96.60;;;;;;6249778;28;20050;-79
2022/09/13 07:01:11;;;;;;;5.35;1.92;;;21.40;95.70;;;;;;6249676;28;20052;-79
2022/09/13 07:04:15;;;;;;;2.92;1.85;;;22.00;94.00;;;;;;6250388;28;20057;-79
2022/09/13 07:07:17;;;;;;;3.08;1.42;;;22.50;92.80;;;;;;6253746;28;20045;-78
2022/09/13 07:10:18;;;;;;;2.40;1.42;;;22.90;90.80;;;;;;6254158;28;20041;-79
2022/09/13 07:13:21;;;;;;;5.63;1.95;;;23.00;89.60;;;;;;6252918;28;20049;-79
2022/09/13 07:16:26;;;;;;;6.72;1.40;;;23.00;89.70;;;;;;6254412;28;20064;-79
2022/09/13 07:19:30;;;;;;;7.15;1.20;;;23.00;89.20;;;;;;6254401;28;20046;-79
2022/09/13 07:22:31;;;;;;;2.53;1.60;;;23.10;89.00;;;;;;6253871;28;20105;-79
2022/09/13 07:25:33;;;;;;;3.55;1.52;;;23.10;89.20;;;;;;6253111;28;20050;-79
2022/09/13 07:28:38;;;;;;;2.45;1.40;;;23.20;86.70;;;;;;6252318;28;20491;-79
2022/09/13 07:31:41;;;;;;;6.40;1.98;;;23.20;86.20;;;;;;6250919;28;20045;-78
2022/09/13 07:34:43;;;;;;;6.68;1.33;;;23.40;85.90;;;;;;6244175;28;20045;-78
2022/09/13 07:37:45;;;;;;;2.83;1.08;;;23.50;84.70;;;;;;6256706;28;20049;-80
2022/09/13 07:40:53;;;;;;;3.63;1.10;;;23.70;84.60;;;;;;6249683;28;20048;-79
2022/09/13 07:43:57;;;;;;;2.47;1.40;;;23.90;84.00;;;;;;6257462;28;20050;-79
2022/09/13 07:46:59;;;;;;;6.43;1.45;;;23.90;82.80;;;;;;6255014;28;20056;-78
2022/09/13 07:50:01;;;;;;;4.20;1.13;;;23.90;82.80;;;;;;6256072;28;20129;-80
2022/09/13 07:53:02;;;;;;;4.63;1.35;;;23.80;82.30;;;;;;6256544;28;20037;-79
2022/09/13 07:56:06;;;;;;;3.10;1.50;;;23.90;82.10;;;;;;6255705;28;20060;-79
2022/09/13 07:59:13;;;;;;;6.32;1.38;;;24.10;81.60;;;;;;6253643;28;20048;-78
2022/09/13 08:02:17;;;;;;;3.70;1.65;;;24.40;80.60;;;;;;6253482;28;20071;-80
2022/09/13 08:05:19;;;;;;;3.60;1.73;;;24.80;79.40;;;;;;6254214;28;20049;-80
2022/09/13 08:08:21;;;;;;;9.70;1.92;;;25.30;77.90;;;;;;6254378;28;20050;-80
2022/09/13 08:11:24;;;;;;;3.92;1.42;;;25.50;76.70;;;;;;6254446;28;20447;-78
2022/09/13 08:14:27;;;;;;;4.28;1.10;;;25.50;75.00;;;;;;6254788;28;20056;-79
2022/09/13 08:17:29;;;;;;;2.75;1.33;;;25.30;75.60;;;;;;6252975;28;20053;-80
2022/09/13 08:20:31;;;;;;;2.88;1.35;;;25.40;76.30;;;;;;6254538;28;20057;-80
2022/09/13 08:23:33;;;;;;;6.60;1.55;;;25.60;75.60;;;;;;6255048;28;20054;-79
2022/09/13 08:26:36;;;;;;;5.60;1.42;;;25.80;74.60;;;;;;6255505;28;20045;-80
2022/09/13 08:29:39;;;;;;;3.22;1.23;;;26.10;73.30;;;;;;6254146;28;20530;-80
2022/09/13 08:32:41;;;;;;;5.82;1.10;;;26.30;72.50;;;;;;6255374;28;20865;-80
2022/09/13 08:35:50;;;;;;;13.82;1.70;;;26.70;71.20;;;;;;6256189;28;20053;-81
2022/09/13 08:38:54;;;;;;;5.55;1.88;;;26.90;70.40;;;;;;6258834;28;20049;-80
2022/09/13 08:42:06;;;;;;;1.33;0.90;;;27.00;68.50;;;;;;6260159;28;20519;-79
2022/09/13 08:45:09;;;;;;;4.05;1.20;;;27.00;67.30;;;;;;6259710;28;20042;-80
2022/09/13 08:48:15;;;;;;;24.73;1.88;;;27.10;67.90;;;;;;6257670;28;20057;-80
2022/09/13 08:51:28;;;;;;;3.35;1.27;;;27.20;67.40;;;;;;6258321;28;20053;-81
2022/09/13 08:54:29;;;;;;;2.50;1.20;;;27.30;66.60;;;;;;6257814;28;20046;-82
2022/09/13 08:57:39;;;;;;;4.32;1.38;;;27.40;66.10;;;;;;6258449;28;20050;-79
2022/09/13 09:00:47;;;;;;;4.28;1.30;;;27.30;65.90;;;;;;6258947;28;20057;-81
2022/09/13 09:03:56;;;;;;;5.13;1.80;;;27.30;66.40;;;;;;6256977;28;20048;-82
2022/09/13 09:07:05;;;;;;;3.58;1.45;;;28.00;65.00;;;;;;6257697;28;20553;-80
2022/09/13 09:10:13;;;;;;;4.47;1.25;;;29.00;62.70;;;;;;6257611;28;20050;-80
2022/09/13 09:13:23;;;;;;;4.65;1.08;;;29.40;60.60;;;;;;6261385;28;20049;-81
2022/09/13 09:16:37;;;;;;;1.80;0.98;;;29.50;59.80;;;;;;6262630;28;20071;-80
2022/09/13 09:19:42;;;;;;;2.25;1.15;;;29.50;59.40;;;;;;6257856;28;20048;-80
2022/09/13 09:22:45;;;;;;;6.50;1.20;;;29.50;59.00;;;;;;6253298;28;20054;-80
2022/09/13 09:25:47;;;;;;;3.28;1.20;;;29.60;58.70;;;;;;6253695;28;20132;-79
2022/09/13 09:28:53;;;;;;;8.10;2.00;;;29.70;58.10;;;;;;6253032;28;20120;-81
2022/09/13 09:32:08;;;;;;;4.88;1.23;;;29.90;58.00;;;;;;6254139;28;20056;-81
2022/09/13 09:35:19;;;;;;;5.90;1.30;;;30.30;57.40;;;;;;6252493;28;20052;-82
2022/09/13 09:38:38;;;;;;;5.20;1.23;;;30.60;56.50;;;;;;6252005;28;20083;-81
2022/09/13 09:41:40;;;;;;;6.28;1.40;;;30.70;55.60;;;;;;6255144;28;20499;-80
2022/09/13 09:44:47;;;;;;;5.47;1.25;;;30.80;55.50;;;;;;6255795;28;20055;-81
2022/09/13 09:47:51;;;;;;;2.53;1.00;;;30.70;54.70;;;;;;6255613;28;20053;-82
2022/09/13 09:50:57;;;;;;;5.75;1.35;;;30.70;54.60;;;;;;6255296;28;20045;-81
2022/09/13 09:54:04;;;;;;;3.45;1.10;;;30.60;54.50;;;;;;6253940;28;20049;-81
2022/09/13 09:57:07;;;;;;;4.70;1.10;;;30.60;54.30;;;;;;6255835;28;20041;-81
2022/09/13 10:00:12;;;;;;;4.95;1.00;;;30.60;54.40;;;;;;6254621;28;20056;-81
2022/09/13 10:03:19;;;;;;;2.25;1.15;;;30.60;54.20;;;;;;6257446;28;20049;-83
2022/09/13 10:06:23;;;;;;;1.70;0.75;;;30.70;53.50;;;;;;6255396;28;20045;-81
2022/09/13 10:09:26;;;;;;;7.22;1.30;;;30.70;53.40;;;;;;6249554;28;20184;-79
2022/09/13 10:12:32;;;;;;;6.47;1.02;;;30.70;53.50;;;;;;6252101;28;20075;-81
2022/09/13 10:15:34;;;;;;;4.85;1.30;;;30.80;53.50;;;;;;6252582;28;20056;-81
2022/09/13 10:18:37;;;;;;;4.15;0.77;;;30.70;53.10;;;;;;6252785;28;20049;-82
2022/09/13 10:21:39;;;;;;;7.53;1.13;;;30.70;52.70;;;;;;6249744;28;20045;-82
2022/09/13 10:24:41;;;;;;;3.70;0.60;;;30.90;53.10;;;;;;6252158;28;20041;-83
2022/09/13 10:27:49;;;;;;;3.58;0.65;;;31.20;52.10;;;;;;6258381;28;20423;-83
2022/09/13 10:30:55;;;;;;;2.47;0.60;;;31.20;52.30;;;;;;6259945;28;20041;-84
2022/09/13 10:34:01;;;;;;;8.40;1.35;;;31.40;52.30;;;;;;6258997;28;20117;-86
2022/09/13 10:37:05;;;;;;;7.93;0.77;;;31.40;51.50;;;;;;6251664;28;20064;-82
2022/09/13 10:40:16;;;;;;;3.65;0.70;;;31.40;51.20;;;;;;6264812;28;20045;-82
2022/09/13 10:43:20;;;;;;;2.15;0.98;;;31.40;51.00;;;;;;6266794;28;20480;-82
2022/09/13 10:46:23;;;;;;;1.33;0.52;;;31.30;50.30;;;;;;6259038;28;20132;-82
2022/09/13 10:49:45;;;;;;;4.03;0.60;;;31.20;49.40;;;;;;6259505;28;20041;-82
2022/09/13 10:52:48;;;;;;;2.80;1.70;;;30.90;50.90;;;;;;6259668;28;20044;-83
2022/09/13 10:55:54;;;;;;;2.92;0.98;;;30.60;51.40;;;;;;6260352;28;20054;-82
2022/09/13 10:59:15;;;;;;;2.03;0.55;;;30.50;52.50;;;;;;6259042;28;20503;-83
2022/09/13 11:02:37;;;;;;;3.92;0.85;;;30.40;52.20;;;;;;6260068;28;20053;-82
2022/09/13 11:05:47;;;;;;;1.13;0.65;;;30.40;52.50;;;;;;6263133;28;20049;-83
2022/09/13 11:08:59;;;;;;;15.68;2.80;;;30.40;52.80;;;;;;6257662;28;20048;-84
2022/09/13 11:12:09;;;;;;;3.42;0.65;;;30.40;52.30;;;;;;6259506;28;20418;-82
2022/09/13 11:15:20;;;;;;;2.10;0.73;;;30.20;53.00;;;;;;6261068;28;20053;-83
2022/09/13 11:18:50;;;;;;;2.70;0.90;;;30.10;53.10;;;;;;6259456;28;20045;-83
2022/09/13 11:22:09;;;;;;;4.20;0.70;;;30.40;53.60;;;;;;6263957;28;20053;-83
2022/09/13 11:25:25;;;;;;;2.55;1.00;;;30.90;53.00;;;;;;6261098;28;20046;-82
2022/09/13 11:28:38;;;;;;;3.58;0.60;;;31.30;52.20;;;;;;6257046;28;20391;-82
2022/09/13 11:31:48;;;;;;;1.80;0.95;;;31.60;52.40;;;;;;6256750;28;20050;-82
2022/09/13 11:35:02;;;;;;;2.03;0.68;;;31.80;51.60;;;;;;6256828;28;20099;-81
2022/09/13 11:38:21;;;;;;;2.15;0.60;;;31.90;50.40;;;;;;6247644;28;20063;-83
2022/09/13 11:41:35;;;;;;;4.15;1.00;;;31.70;50.30;;;;;;6238981;28;20053;-80
2022/09/13 11:45:14;;;;;;;1.58;0.80;;;31.60;49.80;;;;;;6238689;28;20056;-82
2022/09/13 11:48:50;;;;;;;7.30;0.80;;;31.40;49.80;;;;;;6238804;28;20052;-83
2022/09/13 11:52:03;;;;;;;1.88;0.50;;;31.40;50.10;;;;;;6227251;28;20054;-83
2022/09/13 11:55:17;;;;;;;2.40;0.60;;;31.40;50.10;;;;;;6239861;28;20117;-81
2022/09/13 11:58:23;;;;;;;2.15;1.10;;;31.50;50.10;;;;;;6239914;28;20042;-82
2022/09/13 12:01:31;;;;;;;7.45;1.42;;;31.40;50.20;;;;;;6234950;28;20077;-83
2022/09/13 12:04:39;;;;;;;3.50;0.60;;;31.60;50.60;;;;;;6253606;28;20053;-83
2022/09/13 12:07:45;;;;;;;4.65;1.02;;;31.50;49.30;;;;;;6259183;28;20580;-83
2022/09/13 12:10:53;;;;;;;4.15;0.55;;;31.50;49.80;;;;;;6270941;28;20520;-84
2022/09/13 12:13:57;;;;;;;6.10;0.80;;;31.80;48.90;;;;;;6270405;28;20174;-83
2022/09/13 12:17:04;;;;;;;2.65;0.90;;;32.10;48.60;;;;;;6259247;28;20503;-84
2022/09/13 12:20:15;;;;;;;2.70;0.70;;;32.30;48.00;;;;;;6249456;28;20041;-83
2022/09/13 12:23:23;;;;;;;5.60;0.73;;;32.50;47.40;;;;;;6233851;28;20053;-83
2022/09/13 12:26:32;;;;;;;1.58;0.60;;;32.70;46.30;;;;;;6232709;28;20084;-83
2022/09/13 12:29:38;;;;;;;3.45;0.32;;;33.10;46.20;;;;;;6233254;28;20049;-84
2022/09/13 12:32:40;;;;;;;4.32;0.80;;;33.50;45.60;;;;;;6243401;28;20120;-84
2022/09/13 12:35:53;;;;;;;1.13;0.57;;;33.70;43.60;;;;;;6257689;28;20054;-84
2022/09/13 12:39:25;;;;;;;1.45;0.52;;;33.60;44.40;;;;;;6257132;28;20045;-86
2022/09/13 12:42:57;;;;;;;3.13;0.40;;;34.20;43.70;;;;;;6232766;28;20045;-84
2022/09/13 12:46:25;;;;;;;2.63;0.50;;;34.40;43.10;;;;;;6233436;28;20061;-83
2022/09/13 12:49:50;;;;;;;2.83;0.40;;;34.20;42.60;;;;;;6233025;28;20103;-83
2022/09/13 12:53:08;;;;;;;4.72;0.73;;;34.00;43.50;;;;;;6232452;28;20053;-85
2022/09/13 12:56:28;;;;;;;2.85;0.60;;;34.20;43.80;;;;;;6237257;28;20049;-83
2022/09/13 13:00:13;;;;;;;7.00;0.50;;;34.40;43.40;;;;;;6231635;28;20054;-83
2022/09/13 13:03:18;;;;;;;6.50;0.35;;;34.80;43.30;;;;;;6238588;28;20057;-84
2022/09/13 13:06:29;;;;;;;1.45;0.30;;;35.00;42.10;;;;;;6256715;28;20053;-82
2022/09/13 13:09:41;;;;;;;5.32;0.50;;;35.40;41.50;;;;;;6255334;28;20049;-83
2022/09/13 13:12:43;;;;;;;3.13;0.20;;;35.40;41.70;;;;;;6256725;28;20049;-83
2022/09/13 13:16:02;;;;;;;1.30;0.30;;;35.70;41.60;;;;;;6261838;28;20060;-82
2022/09/13 13:19:06;;;;;;;1.27;0.63;;;35.80;40.90;;;;;;6258825;28;20045;-82
2022/09/13 13:22:45;;;;;;;1.85;0.50;;;35.60;40.90;;;;;;6259436;28;20045;-83
2022/09/13 13:26:00;;;;;;;0.85;0.30;;;35.40;40.00;;;;;;6260095;28;20050;-82
2022/09/13 13:29:13;;;;;;;0.85;0.40;;;34.80;41.30;;;;;;6260427;28;20056;-82
2022/09/13 13:32:16;;;;;;;1.92;0.28;;;34.40;42.20;;;;;;6256685;28;20353;-80
2022/09/13 13:35:31;;;;;;;1.13;0.30;;;34.20;42.70;;;;;;6244416;28;20515;-80
2022/09/13 13:38:48;;;;;;;1.92;0.60;;;34.20;42.40;;;;;;6231325;28;20121;-81
2022/09/13 13:41:53;;;;;;;2.80;0.50;;;34.10;43.00;;;;;;6245529;28;20046;-80
2022/09/13 13:45:18;;;;;;;5.90;0.40;;;34.10;42.50;;;;;;6238997;28;20632;-82
2022/09/13 13:48:36;;;;;;;1.35;0.35;;;34.00;43.50;;;;;;6256223;28;20481;-82
2022/09/13 13:51:37;;;;;;;3.40;0.40;;;34.20;42.90;;;;;;6256959;28;20046;-83
2022/09/13 13:54:58;;;;;;;0.90;0.30;;;34.60;42.50;;;;;;6255836;28;20057;-81
2022/09/13 13:58:03;;;;;;;5.07;0.40;;;34.90;41.10;;;;;;6252982;28;20049;-81
2022/09/13 14:01:05;;;;;;;0.85;0.30;;;34.60;42.30;;;;;;6253224;28;20080;-81
2022/09/13 14:04:42;;;;;;;1.10;0.40;;;34.20;41.60;;;;;;6255175;28;20052;-81
2022/09/13 14:08:25;;;;;;;5.22;1.08;;;33.80;42.10;;;;;;6230048;28;20492;-81
2022/09/13 14:11:41;;;;;;;0.70;0.40;;;33.50;43.10;;;;;;6231981;28;20042;-83
2022/09/13 14:14:57;;;;;;;5.43;1.02;;;33.10;43.20;;;;;;6233525;28;20049;-81
2022/09/13 14:18:29;;;;;;;3.08;0.32;;;32.70;44.30;;;;;;6239450;28;20500;-82
2022/09/13 14:21:32;;;;;;;1.60;0.30;;;32.60;44.90;;;;;;6242080;28;20056;-81
2022/09/13 14:24:41;;;;;;;3.15;0.45;;;32.30;44.90;;;;;;6240569;28;20492;-81
2022/09/13 14:27:43;;;;;;;3.13;0.57;;;32.00;45.20;;;;;;6241056;28;20065;-82
2022/09/13 14:30:46;;;;;;;1.50;0.50;;;31.70;45.80;;;;;;6240070;28;20038;-82
2022/09/13 14:33:48;;;;;;;1.13;0.50;;;31.50;46.40;;;;;;6260264;28;20046;-82
2022/09/13 14:36:56;;;;;;;4.50;0.45;;;31.30;47.00;;;;;;6265517;28;20045;-85
2022/09/13 14:40:01;;;;;;;3.72;0.35;;;31.20;47.10;;;;;;6264318;28;20052;-81
2022/09/13 14:43:14;;;;;;;1.80;0.57;;;31.20;47.70;;;;;;6248707;28;20060;-83
2022/09/13 14:46:22;;;;;;;0.73;0.50;;;30.90;47.90;;;;;;6238837;28;20049;-84
2022/09/13 14:49:27;;;;;;;1.63;0.43;;;30.60;49.00;;;;;;6237083;28;20056;-83
2022/09/13 14:52:34;;;;;;;3.42;0.65;;;30.40;49.50;;;;;;6238404;28;20046;-83
2022/09/13 14:55:40;;;;;;;3.78;0.47;;;30.30;50.10;;;;;;6238400;28;20057;-83
2022/09/13 14:58:45;;;;;;;3.40;1.35;;;30.20;50.40;;;;;;6239000;28;20042;-83
2022/09/13 15:01:47;;;;;;;0.82;0.40;;;30.10;50.70;;;;;;6242274;28;20063;-83
2022/09/13 15:04:51;;;;;;;4.63;0.30;;;30.00;51.10;;;;;;6264039;28;20049;-82
2022/09/13 15:07:54;;;;;;;2.50;0.80;;;29.90;51.80;;;;;;6264298;28;20049;-83
2022/09/13 15:10:57;;;;;;;3.88;0.80;;;29.80;52.10;;;;;;6263395;28;20049;-83
2022/09/13 15:14:24;;;;;;;2.20;0.45;;;29.70;52.50;;;;;;6265523;28;20355;-83
2022/09/13 15:17:26;;;;;;;1.58;0.50;;;29.60;52.70;;;;;;6264964;28;20045;-83
2022/09/13 15:20:30;;;;;;;1.20;0.50;;;29.40;53.10;;;;;;6263895;28;20064;-83
2022/09/13 15:23:35;;;;;;;1.60;0.70;;;29.30;53.60;;;;;;6264382;28;20068;-83
2022/09/13 15:26:37;;;;;;;1.05;0.70;;;29.10;53.90;;;;;;6259785;28;20183;-81
2022/09/13 15:29:39;;;;;;;2.72;0.60;;;29.00;54.40;;;;;;6257034;28;20045;-81
2022/09/13 15:32:42;;;;;;;2.72;0.50;;;29.00;55.00;;;;;;6259427;28;20048;-81
2022/09/13 15:35:46;;;;;;;2.35;0.70;;;29.00;55.20;;;;;;6258581;28;20061;-82
2022/09/13 15:39:15;;;;;;;1.98;0.77;;;29.00;55.50;;;;;;6258320;28;20053;-81
2022/09/13 15:42:17;;;;;;;2.85;0.60;;;28.80;55.40;;;;;;6251293;28;20051;-81
2022/09/13 15:45:20;;;;;;;3.63;0.60;;;28.80;55.60;;;;;;6258464;28;20438;-81
2022/09/13 15:48:26;;;;;;;3.33;0.55;;;28.70;55.80;;;;;;6258227;28;20045;-80
2022/09/13 15:51:28;;;;;;;3.53;0.75;;;28.70;56.50;;;;;;6259063;28;20150;-81
2022/09/13 15:54:35;;;;;;;1.15;0.63;;;28.80;56.30;;;;;;6252179;28;20058;-81
2022/09/13 15:57:37;;;;;;;2.65;0.68;;;28.90;56.00;;;;;;6231519;28;20688;-81
2022/09/13 16:00:39;;;;;;;6.88;0.65;;;28.90;55.90;;;;;;6229927;28;20080;-80
2022/09/13 16:03:41;;;;;;;2.78;0.55;;;28.80;56.20;;;;;;6249227;28;20034;-80
2022/09/13 16:06:43;;;;;;;1.23;0.52;;;28.80;56.40;;;;;;6232839;28;20056;-79
2022/09/13 16:09:46;;;;;;;2.13;1.00;;;28.80;56.80;;;;;;6229144;28;20060;-80
2022/09/13 16:12:48;;;;;;;3.28;0.50;;;28.80;56.90;;;;;;6243442;28;20048;-80
2022/09/13 16:15:50;;;;;;;3.50;1.20;;;28.70;57.10;;;;;;6268228;28;20055;-79
2022/09/13 16:18:52;;;;;;;2.08;1.45;;;28.80;57.30;;;;;;6265801;28;20069;-80